sensor_id;sensor_type;location;lat;lon;timestamp;temperature;humidity
40952;DHT22;26682;51.660;19.338;2023-02-28T00:02:12;-2.00;1.00
40952;DHT22;26682;51.660;19.338;2023-02-28T00:04:55;-2.00;1.00
40952;DHT22;26682;51.660;19.338;2023-02-28T00:07:43;-2.10;1.00
40952;DHT22;26682;51.660;19.338;2023-02-28T00:10:28;-2.20;1.00
40952;DHT22;26682;51.660;19.338;2023-02-28T00:13:11;-2.20;1.00
40952;DHT22;26682;51.660;19.338;2023-02-28T00:16:09;-2.30;1.00
40952;DHT22;26682;51.660;19.338;2023-02-28T00:18:52;-2.30;1.00
40952;DHT22;26682;51.660;19.338;2023-02-28T00:21:34;-2.30;1.00
40952;DHT22;26682;51.660;19.338;2023-02-28T00:24:17;-2.30;1.00
40952;DHT22;26682;51.660;19.338;2023-02-28T00:27:00;-2.30;99.90
40952;DHT22;26682;51.660;19.338;2023-02-28T00:29:42;-2.30;99.90
40952;DHT22;26682;51.660;19.338;2023-02-28T00:32:25;-2.40;1.00
40952;DHT22;26682;51.660;19.338;2023-02-28T00:35:09;-2.40;1.00
40952;DHT22;26682;51.660;19.338;2023-02-28T00:37:52;-2.40;1.00
40952;DHT22;26682;51.660;19.338;2023-02-28T00:40:34;-2.40;99.90
40952;DHT22;26682;51.660;19.338;2023-02-28T00:43:17;-2.40;99.90
40952;DHT22;26682;51.660;19.338;2023-02-28T00:45:59;-2.50;1.00
40952;DHT22;26682;51.660;19.338;2023-02-28T00:48:42;-2.40;1.00
40952;DHT22;26682;51.660;19.338;2023-02-28T00:51:24;-2.50;1.00
40952;DHT22;26682;51.660;19.338;2023-02-28T00:54:07;-2.40;1.00
40952;DHT22;26682;51.660;19.338;2023-02-28T00:56:50;-2.50;1.00
40952;DHT22;26682;51.660;19.338;2023-02-28T00:59:32;-2.50;99.90
40952;DHT22;26682;51.660;19.338;2023-02-28T01:02:15;-2.60;99.90
40952;DHT22;26682;51.660;19.338;2023-02-28T01:04:57;-2.70;1.00
40952;DHT22;26682;51.660;19.338;2023-02-28T01:07:40;-2.80;1.00
40952;DHT22;26682;51.660;19.338;2023-02-28T01:10:22;-2.90;1.00
40952;DHT22;26682;51.660;19.338;2023-02-28T01:13:05;-3.00;99.90
40952;DHT22;26682;51.660;19.338;2023-02-28T01:15:54;-3.00;1.00
40952;DHT22;26682;51.660;19.338;2023-02-28T01:18:37;-3.10;1.00
40952;DHT22;26682;51.660;19.338;2023-02-28T01:21:21;-3.20;99.90
40952;DHT22;26682;51.660;19.338;2023-02-28T01:24:05;-3.30;99.90
40952;DHT22;26682;51.660;19.338;2023-02-28T01:26:47;-3.40;99.90
40952;DHT22;26682;51.660;19.338;2023-02-28T01:29:30;-3.40;99.90
40952;DHT22;26682;51.660;19.338;2023-02-28T01:32:12;-3.40;1.00
40952;DHT22;26682;51.660;19.338;2023-02-28T01:34:55;-3.50;1.00
40952;DHT22;26682;51.660;19.338;2023-02-28T01:37:38;-3.60;99.90
40952;DHT22;26682;51.660;19.338;2023-02-28T01:40:20;-3.60;99.90
40952;DHT22;26682;51.660;19.338;2023-02-28T01:43:12;-3.70;1.00
40952;DHT22;26682;51.660;19.338;2023-02-28T01:45:59;-3.70;1.00
40952;DHT22;26682;51.660;19.338;2023-02-28T01:51:41;-3.90;99.90
40952;DHT22;26682;51.660;19.338;2023-02-28T01:54:31;-3.90;99.90
40952;DHT22;26682;51.660;19.338;2023-02-28T01:57:16;-3.90;99.90
40952;DHT22;26682;51.660;19.338;2023-02-28T02:00:03;-4.00;99.90
40952;DHT22;26682;51.660;19.338;2023-02-28T02:02:57;-4.00;99.90
40952;DHT22;26682;51.660;19.338;2023-02-28T02:05:40;-4.00;99.90
40952;DHT22;26682;51.660;19.338;2023-02-28T02:08:26;-4.00;99.90
40952;DHT22;26682;51.660;19.338;2023-02-28T02:11:18;-4.10;99.90
40952;DHT22;26682;51.660;19.338;2023-02-28T02:17:26;-4.20;99.90
40952;DHT22;26682;51.660;19.338;2023-02-28T02:26:55;-4.30;99.90
40952;DHT22;26682;51.660;19.338;2023-02-28T02:30:12;-4.30;99.90
40952;DHT22;26682;51.660;19.338;2023-02-28T02:41:52;-4.20;99.90
40952;DHT22;26682;51.660;19.338;2023-02-28T02:44:51;-4.10;99.90
40952;DHT22;26682;51.660;19.338;2023-02-28T02:47:39;-4.10;99.90
40952;DHT22;26682;51.660;19.338;2023-02-28T02:50:31;-4.10;19.30
40952;DHT22;26682;51.660;19.338;2023-02-28T02:53:18;-4.10;99.90
40952;DHT22;26682;51.660;19.338;2023-02-28T02:56:05;-4.10;99.90
40952;DHT22;26682;51.660;19.338;2023-02-28T02:58:51;-4.20;56.20
40952;DHT22;26682;51.660;19.338;2023-02-28T03:01:37;-4.20;1.00
40952;DHT22;26682;51.660;19.338;2023-02-28T03:04:23;-4.20;1.00
40952;DHT22;26682;51.660;19.338;2023-02-28T03:07:06;-4.20;8.40
40952;DHT22;26682;51.660;19.338;2023-02-28T03:09:55;-4.30;1.00
40952;DHT22;26682;51.660;19.338;2023-02-28T03:12:49;-4.20;1.00
40952;DHT22;26682;51.660;19.338;2023-02-28T03:15:53;-4.20;1.00
40952;DHT22;26682;51.660;19.338;2023-02-28T03:18:45;-4.30;1.00
40952;DHT22;26682;51.660;19.338;2023-02-28T03:27:29;-4.40;1.00
40952;DHT22;26682;51.660;19.338;2023-02-28T03:33:29;-4.60;1.00
40952;DHT22;26682;51.660;19.338;2023-02-28T03:36:16;-4.60;99.90
40952;DHT22;26682;51.660;19.338;2023-02-28T03:39:00;-4.60;1.00
40952;DHT22;26682;51.660;19.338;2023-02-28T03:41:53;-4.60;1.00
40952;DHT22;26682;51.660;19.338;2023-02-28T03:44:49;-4.70;99.90
40952;DHT22;26682;51.660;19.338;2023-02-28T03:47:40;-4.70;1.00
40952;DHT22;26682;51.660;19.338;2023-02-28T03:50:30;-4.70;8.10
40952;DHT22;26682;51.660;19.338;2023-02-28T03:56:21;-4.80;1.00
40952;DHT22;26682;51.660;19.338;2023-02-28T03:59:12;-4.80;20.60
40952;DHT22;26682;51.660;19.338;2023-02-28T04:01:57;-4.90;1.00
40952;DHT22;26682;51.660;19.338;2023-02-28T04:04:40;-4.90;1.00
40952;DHT22;26682;51.660;19.338;2023-02-28T04:07:30;-5.00;61.20
40952;DHT22;26682;51.660;19.338;2023-02-28T04:10:13;-5.00;49.90
40952;DHT22;26682;51.660;19.338;2023-02-28T04:12:56;-5.00;99.90
40952;DHT22;26682;51.660;19.338;2023-02-28T04:15:39;-5.10;99.90
40952;DHT22;26682;51.660;19.338;2023-02-28T04:18:21;-5.10;99.90
40952;DHT22;26682;51.660;19.338;2023-02-28T04:21:05;-5.20;99.90
40952;DHT22;26682;51.660;19.338;2023-02-28T04:23:47;-5.20;99.90
40952;DHT22;26682;51.660;19.338;2023-02-28T04:26:35;-5.30;99.90
40952;DHT22;26682;51.660;19.338;2023-02-28T04:29:27;-5.30;99.90
40952;DHT22;26682;51.660;19.338;2023-02-28T04:32:10;-5.20;1.00
40952;DHT22;26682;51.660;19.338;2023-02-28T04:34:53;-5.20;1.00
40952;DHT22;26682;51.660;19.338;2023-02-28T04:37:35;-5.20;1.00
40952;DHT22;26682;51.660;19.338;2023-02-28T04:40:19;-5.30;1.00
40952;DHT22;26682;51.660;19.338;2023-02-28T04:43:01;-5.30;1.00
40952;DHT22;26682;51.660;19.338;2023-02-28T04:45:45;-5.30;1.00
40952;DHT22;26682;51.660;19.338;2023-02-28T04:48:28;-5.40;1.00
40952;DHT22;26682;51.660;19.338;2023-02-28T04:51:13;-5.40;8.20
40952;DHT22;26682;51.660;19.338;2023-02-28T04:53:56;-5.40;55.30
40952;DHT22;26682;51.660;19.338;2023-02-28T04:56:38;-5.50;99.90
40952;DHT22;26682;51.660;19.338;2023-02-28T04:59:21;-5.50;99.90
40952;DHT22;26682;51.660;19.338;2023-02-28T05:02:03;-5.50;99.90
40952;DHT22;26682;51.660;19.338;2023-02-28T05:04:49;-5.50;99.90
40952;DHT22;26682;51.660;19.338;2023-02-28T05:07:31;-5.50;99.90
40952;DHT22;26682;51.660;19.338;2023-02-28T05:10:14;-5.50;99.90
40952;DHT22;26682;51.660;19.338;2023-02-28T05:12:57;-5.50;99.90
40952;DHT22;26682;51.660;19.338;2023-02-28T05:15:40;-5.50;99.90
40952;DHT22;26682;51.660;19.338;2023-02-28T05:18:22;-5.50;99.90
40952;DHT22;26682;51.660;19.338;2023-02-28T05:21:05;-5.50;99.90
40952;DHT22;26682;51.660;19.338;2023-02-28T05:23:47;-5.50;99.90
40952;DHT22;26682;51.660;19.338;2023-02-28T05:26:33;-5.50;99.90
40952;DHT22;26682;51.660;19.338;2023-02-28T05:29:16;-5.50;99.90
40952;DHT22;26682;51.660;19.338;2023-02-28T05:31:58;-5.50;99.90
40952;DHT22;26682;51.660;19.338;2023-02-28T05:34:41;-5.50;99.90
40952;DHT22;26682;51.660;19.338;2023-02-28T05:37:24;-5.50;1.00
40952;DHT22;26682;51.660;19.338;2023-02-28T05:40:07;-5.50;1.00
40952;DHT22;26682;51.660;19.338;2023-02-28T05:42:52;-5.40;1.00
40952;DHT22;26682;51.660;19.338;2023-02-28T05:45:38;-5.40;1.00
40952;DHT22;26682;51.660;19.338;2023-02-28T05:48:23;-5.40;1.00
40952;DHT22;26682;51.660;19.338;2023-02-28T05:51:09;-5.40;1.00
40952;DHT22;26682;51.660;19.338;2023-02-28T05:53:52;-5.30;1.00
40952;DHT22;26682;51.660;19.338;2023-02-28T05:56:34;-5.30;1.00
40952;DHT22;26682;51.660;19.338;2023-02-28T05:59:53;-5.20;1.00
40952;DHT22;26682;51.660;19.338;2023-02-28T06:02:40;-5.10;99.90
40952;DHT22;26682;51.660;19.338;2023-02-28T06:05:29;-5.00;99.90
40952;DHT22;26682;51.660;19.338;2023-02-28T06:08:12;-5.00;99.90
40952;DHT22;26682;51.660;19.338;2023-02-28T06:10:54;-5.00;99.90
40952;DHT22;26682;51.660;19.338;2023-02-28T06:13:37;-4.90;99.90
40952;DHT22;26682;51.660;19.338;2023-02-28T06:16:20;-4.90;99.90
40952;DHT22;26682;51.660;19.338;2023-02-28T06:19:04;-4.80;99.90
40952;DHT22;26682;51.660;19.338;2023-02-28T06:21:56;-4.70;99.90
40952;DHT22;26682;51.660;19.338;2023-02-28T06:24:50;-4.60;99.90
40952;DHT22;26682;51.660;19.338;2023-02-28T06:27:35;-4.50;99.90
40952;DHT22;26682;51.660;19.338;2023-02-28T06:30:20;-4.30;99.90
40952;DHT22;26682;51.660;19.338;2023-02-28T06:33:07;-4.10;99.90
40952;DHT22;26682;51.660;19.338;2023-02-28T06:35:51;-3.90;99.90
40952;DHT22;26682;51.660;19.338;2023-02-28T06:38:40;-3.70;99.90
40952;DHT22;26682;51.660;19.338;2023-02-28T06:41:26;-3.60;49.60
40952;DHT22;26682;51.660;19.338;2023-02-28T06:44:27;-3.40;78.50
40952;DHT22;26682;51.660;19.338;2023-02-28T06:47:32;-3.10;91.70
40952;DHT22;26682;51.660;19.338;2023-02-28T06:50:16;-2.90;99.90
40952;DHT22;26682;51.660;19.338;2023-02-28T06:53:09;-2.80;99.90
40952;DHT22;26682;51.660;19.338;2023-02-28T06:56:08;-2.60;99.90
40952;DHT22;26682;51.660;19.338;2023-02-28T06:58:51;-2.40;1.00
40952;DHT22;26682;51.660;19.338;2023-02-28T07:01:35;-2.20;1.00
40952;DHT22;26682;51.660;19.338;2023-02-28T07:04:19;-2.00;99.90
40952;DHT22;26682;51.660;19.338;2023-02-28T07:07:11;-1.70;99.90
40952;DHT22;26682;51.660;19.338;2023-02-28T07:09:59;-1.50;22.10
40952;DHT22;26682;51.660;19.338;2023-02-28T07:12:42;-1.40;99.90
40952;DHT22;26682;51.660;19.338;2023-02-28T07:15:28;-1.20;2.90
40952;DHT22;26682;51.660;19.338;2023-02-28T07:18:14;-1.10;1.00
40952;DHT22;26682;51.660;19.338;2023-02-28T07:20:57;-1.00;99.90
40952;DHT22;26682;51.660;19.338;2023-02-28T07:23:44;-0.80;99.90
40952;DHT22;26682;51.660;19.338;2023-02-28T07:26:27;-0.60;1.00
40952;DHT22;26682;51.660;19.338;2023-02-28T07:29:10;-0.50;1.00
40952;DHT22;26682;51.660;19.338;2023-02-28T07:32:00;-0.50;1.00
40952;DHT22;26682;51.660;19.338;2023-02-28T07:34:44;-0.40;30.80
40952;DHT22;26682;51.660;19.338;2023-02-28T07:37:27;-0.30;30.00
40952;DHT22;26682;51.660;19.338;2023-02-28T07:40:11;-0.20;37.50
40952;DHT22;26682;51.660;19.338;2023-02-28T07:42:57;-0.10;40.50
40952;DHT22;26682;51.660;19.338;2023-02-28T07:45:46;0.10;44.20
40952;DHT22;26682;51.660;19.338;2023-02-28T07:49:23;0.20;47.40
40952;DHT22;26682;51.660;19.338;2023-02-28T07:52:15;0.30;59.90
40952;DHT22;26682;51.660;19.338;2023-02-28T07:55:01;0.40;47.80
40952;DHT22;26682;51.660;19.338;2023-02-28T07:58:08;0.40;33.00
40952;DHT22;26682;51.660;19.338;2023-02-28T08:01:08;0.30;83.30
40952;DHT22;26682;51.660;19.338;2023-02-28T08:04:04;0.00;79.10
40952;DHT22;26682;51.660;19.338;2023-02-28T08:06:47;0.10;89.50
40952;DHT22;26682;51.660;19.338;2023-02-28T08:09:41;0.30;87.60
40952;DHT22;26682;51.660;19.338;2023-02-28T08:12:24;0.00;79.20
40952;DHT22;26682;51.660;19.338;2023-02-28T08:15:10;0.10;39.70
40952;DHT22;26682;51.660;19.338;2023-02-28T08:18:14;0.10;54.30
40952;DHT22;26682;51.660;19.338;2023-02-28T08:20:58;0.10;36.70
40952;DHT22;26682;51.660;19.338;2023-02-28T08:24:01;0.10;39.20
40952;DHT22;26682;51.660;19.338;2023-02-28T08:26:56;0.10;42.60
40952;DHT22;26682;51.660;19.338;2023-02-28T08:29:46;0.10;39.30
40952;DHT22;26682;51.660;19.338;2023-02-28T08:32:38;0.20;44.40
40952;DHT22;26682;51.660;19.338;2023-02-28T08:35:22;0.20;48.70
40952;DHT22;26682;51.660;19.338;2023-02-28T08:38:05;0.50;45.60
40952;DHT22;26682;51.660;19.338;2023-02-28T08:41:02;0.40;49.20
40952;DHT22;26682;51.660;19.338;2023-02-28T08:43:45;0.50;39.40
40952;DHT22;26682;51.660;19.338;2023-02-28T08:46:31;0.50;29.30
40952;DHT22;26682;51.660;19.338;2023-02-28T08:49:14;0.50;25.50
40952;DHT22;26682;51.660;19.338;2023-02-28T08:52:00;0.60;26.10
40952;DHT22;26682;51.660;19.338;2023-02-28T08:54:43;0.80;27.40
40952;DHT22;26682;51.660;19.338;2023-02-28T08:57:33;1.00;21.90
40952;DHT22;26682;51.660;19.338;2023-02-28T09:00:16;0.80;46.40
40952;DHT22;26682;51.660;19.338;2023-02-28T09:03:07;0.80;45.50
40952;DHT22;26682;51.660;19.338;2023-02-28T09:06:00;0.80;41.10
40952;DHT22;26682;51.660;19.338;2023-02-28T09:08:45;0.80;36.40
40952;DHT22;26682;51.660;19.338;2023-02-28T09:11:28;0.80;43.80
40952;DHT22;26682;51.660;19.338;2023-02-28T09:14:12;0.60;38.90
40952;DHT22;26682;51.660;19.338;2023-02-28T09:17:04;0.70;35.60
40952;DHT22;26682;51.660;19.338;2023-02-28T09:20:00;0.40;29.20
40952;DHT22;26682;51.660;19.338;2023-02-28T09:23:00;0.50;35.60
40952;DHT22;26682;51.660;19.338;2023-02-28T09:25:58;0.70;32.90
40952;DHT22;26682;51.660;19.338;2023-02-28T09:29:02;0.80;23.50
40952;DHT22;26682;51.660;19.338;2023-02-28T09:32:00;0.80;28.60
40952;DHT22;26682;51.660;19.338;2023-02-28T09:34:43;0.90;29.70
40952;DHT22;26682;51.660;19.338;2023-02-28T09:37:29;0.90;28.50
40952;DHT22;26682;51.660;19.338;2023-02-28T09:40:14;1.00;27.40
40952;DHT22;26682;51.660;19.338;2023-02-28T09:43:04;1.00;32.70
40952;DHT22;26682;51.660;19.338;2023-02-28T09:45:52;1.20;29.70
40952;DHT22;26682;51.660;19.338;2023-02-28T09:48:44;1.10;36.10
40952;DHT22;26682;51.660;19.338;2023-02-28T09:54:49;0.80;41.80
40952;DHT22;26682;51.660;19.338;2023-02-28T09:57:47;0.80;49.70
40952;DHT22;26682;51.660;19.338;2023-02-28T10:00:37;1.00;50.40
40952;DHT22;26682;51.660;19.338;2023-02-28T10:06:21;1.20;50.00
40952;DHT22;26682;51.660;19.338;2023-02-28T10:09:18;1.30;53.80
40952;DHT22;26682;51.660;19.338;2023-02-28T10:12:06;1.50;55.60
40952;DHT22;26682;51.660;19.338;2023-02-28T10:14:52;1.40;53.70
40952;DHT22;26682;51.660;19.338;2023-02-28T10:17:40;1.20;54.30
40952;DHT22;26682;51.660;19.338;2023-02-28T10:20:45;1.20;49.10
40952;DHT22;26682;51.660;19.338;2023-02-28T10:23:34;1.20;57.40
40952;DHT22;26682;51.660;19.338;2023-02-28T10:26:17;1.10;55.30
40952;DHT22;26682;51.660;19.338;2023-02-28T10:29:00;1.50;56.70
40952;DHT22;26682;51.660;19.338;2023-02-28T10:31:43;1.60;54.20
40952;DHT22;26682;51.660;19.338;2023-02-28T10:34:26;1.60;54.40
40952;DHT22;26682;51.660;19.338;2023-02-28T10:37:11;1.60;55.00
40952;DHT22;26682;51.660;19.338;2023-02-28T10:39:57;1.50;54.50
40952;DHT22;26682;51.660;19.338;2023-02-28T10:42:40;1.60;54.80
40952;DHT22;26682;51.660;19.338;2023-02-28T10:45:23;1.80;55.00
40952;DHT22;26682;51.660;19.338;2023-02-28T10:51:19;1.80;58.50
40952;DHT22;26682;51.660;19.338;2023-02-28T10:54:31;1.60;50.00
40952;DHT22;26682;51.660;19.338;2023-02-28T10:57:24;1.40;51.60
40952;DHT22;26682;51.660;19.338;2023-02-28T11:00:20;1.60;51.00
40952;DHT22;26682;51.660;19.338;2023-02-28T11:03:33;1.90;50.20
40952;DHT22;26682;51.660;19.338;2023-02-28T11:06:33;2.10;51.70
40952;DHT22;26682;51.660;19.338;2023-02-28T11:12:23;2.70;52.40
40952;DHT22;26682;51.660;19.338;2023-02-28T11:15:35;2.80;53.30
40952;DHT22;26682;51.660;19.338;2023-02-28T11:18:29;2.70;48.50
40952;DHT22;26682;51.660;19.338;2023-02-28T11:21:38;2.60;48.60
40952;DHT22;26682;51.660;19.338;2023-02-28T11:24:29;2.20;51.40
40952;DHT22;26682;51.660;19.338;2023-02-28T11:27:47;2.10;51.30
40952;DHT22;26682;51.660;19.338;2023-02-28T11:33:57;2.40;51.50
40952;DHT22;26682;51.660;19.338;2023-02-28T11:36:59;2.40;50.80
40952;DHT22;26682;51.660;19.338;2023-02-28T11:39:56;2.30;51.30
40952;DHT22;26682;51.660;19.338;2023-02-28T11:45:51;2.50;51.20
40952;DHT22;26682;51.660;19.338;2023-02-28T12:28:50;2.50;44.00
40952;DHT22;26682;51.660;19.338;2023-02-28T12:31:38;2.50;44.40
40952;DHT22;26682;51.660;19.338;2023-02-28T12:34:28;2.60;47.70
40952;DHT22;26682;51.660;19.338;2023-02-28T12:38:01;2.50;48.60
40952;DHT22;26682;51.660;19.338;2023-02-28T12:41:17;2.50;42.30
40952;DHT22;26682;51.660;19.338;2023-02-28T12:44:26;2.60;37.20
40952;DHT22;26682;51.660;19.338;2023-02-28T12:47:16;2.70;39.40
40952;DHT22;26682;51.660;19.338;2023-02-28T12:50:03;2.60;42.60
40952;DHT22;26682;51.660;19.338;2023-02-28T13:11:52;2.70;55.30
40952;DHT22;26682;51.660;19.338;2023-02-28T13:14:37;2.60;59.10
40952;DHT22;26682;51.660;19.338;2023-02-28T13:17:21;2.70;59.80
40952;DHT22;26682;51.660;19.338;2023-02-28T13:20:24;2.80;59.00
40952;DHT22;26682;51.660;19.338;2023-02-28T13:23:37;2.80;59.00
40952;DHT22;26682;51.660;19.338;2023-02-28T13:26:21;2.90;53.00
40952;DHT22;26682;51.660;19.338;2023-02-28T13:29:28;2.80;52.20
40952;DHT22;26682;51.660;19.338;2023-02-28T13:37:43;2.80;48.50
40952;DHT22;26682;51.660;19.338;2023-02-28T13:40:30;2.70;51.90
40952;DHT22;26682;51.660;19.338;2023-02-28T13:43:19;2.70;50.40
40952;DHT22;26682;51.660;19.338;2023-02-28T13:46:20;2.80;51.10
40952;DHT22;26682;51.660;19.338;2023-02-28T13:49:32;2.90;48.40
40952;DHT22;26682;51.660;19.338;2023-02-28T13:52:43;2.90;50.20
40952;DHT22;26682;51.660;19.338;2023-02-28T13:56:50;2.80;48.30
40952;DHT22;26682;51.660;19.338;2023-02-28T14:05:47;2.80;54.50
40952;DHT22;26682;51.660;19.338;2023-02-28T14:08:31;2.80;52.20
40952;DHT22;26682;51.660;19.338;2023-02-28T14:11:36;2.80;51.80
40952;DHT22;26682;51.660;19.338;2023-02-28T14:17:17;2.80;50.60
40952;DHT22;26682;51.660;19.338;2023-02-28T14:20:03;2.80;49.00
40952;DHT22;26682;51.660;19.338;2023-02-28T14:39:00;2.80;49.00
40952;DHT22;26682;51.660;19.338;2023-02-28T14:41:45;2.80;53.00
40952;DHT22;26682;51.660;19.338;2023-02-28T14:44:31;2.70;46.00
40952;DHT22;26682;51.660;19.338;2023-02-28T14:47:15;2.70;48.40
40952;DHT22;26682;51.660;19.338;2023-02-28T14:49:59;2.60;48.20
40952;DHT22;26682;51.660;19.338;2023-02-28T14:52:43;2.50;51.30
40952;DHT22;26682;51.660;19.338;2023-02-28T14:55:32;2.50;51.90
40952;DHT22;26682;51.660;19.338;2023-02-28T14:58:28;2.40;52.40
40952;DHT22;26682;51.660;19.338;2023-02-28T15:01:11;2.40;52.00
40952;DHT22;26682;51.660;19.338;2023-02-28T15:04:00;2.40;51.80
40952;DHT22;26682;51.660;19.338;2023-02-28T15:06:43;2.40;51.00
40952;DHT22;26682;51.660;19.338;2023-02-28T15:09:27;2.30;53.20
40952;DHT22;26682;51.660;19.338;2023-02-28T15:12:14;2.20;53.60
40952;DHT22;26682;51.660;19.338;2023-02-28T15:14:57;2.20;53.60
40952;DHT22;26682;51.660;19.338;2023-02-28T15:17:44;2.20;53.60
40952;DHT22;26682;51.660;19.338;2023-02-28T15:20:29;2.10;52.90
40952;DHT22;26682;51.660;19.338;2023-02-28T15:23:12;2.10;53.50
40952;DHT22;26682;51.660;19.338;2023-02-28T15:25:55;2.10;51.10
40952;DHT22;26682;51.660;19.338;2023-02-28T15:28:38;2.10;50.40
40952;DHT22;26682;51.660;19.338;2023-02-28T15:31:31;2.00;52.70
40952;DHT22;26682;51.660;19.338;2023-02-28T15:34:37;1.90;51.00
40952;DHT22;26682;51.660;19.338;2023-02-28T15:40:30;1.90;50.00
40952;DHT22;26682;51.660;19.338;2023-02-28T15:43:28;1.80;52.50
40952;DHT22;26682;51.660;19.338;2023-02-28T15:46:12;1.80;41.80
40952;DHT22;26682;51.660;19.338;2023-02-28T15:48:58;1.70;50.70
40952;DHT22;26682;51.660;19.338;2023-02-28T15:51:41;1.60;52.00
40952;DHT22;26682;51.660;19.338;2023-02-28T15:54:30;1.50;52.10
40952;DHT22;26682;51.660;19.338;2023-02-28T15:57:26;1.50;53.90
40952;DHT22;26682;51.660;19.338;2023-02-28T16:00:21;1.40;53.70
40952;DHT22;26682;51.660;19.338;2023-02-28T16:03:34;1.30;53.30
40952;DHT22;26682;51.660;19.338;2023-02-28T16:09:25;1.20;52.90
40952;DHT22;26682;51.660;19.338;2023-02-28T16:12:10;1.10;54.50
40952;DHT22;26682;51.660;19.338;2023-02-28T16:14:58;1.00;54.80
40952;DHT22;26682;51.660;19.338;2023-02-28T16:17:43;0.90;56.50
40952;DHT22;26682;51.660;19.338;2023-02-28T16:20:30;0.90;56.30
40952;DHT22;26682;51.660;19.338;2023-02-28T16:23:13;0.80;55.40
40952;DHT22;26682;51.660;19.338;2023-02-28T16:25:55;0.70;56.50
40952;DHT22;26682;51.660;19.338;2023-02-28T16:28:38;0.60;55.20
40952;DHT22;26682;51.660;19.338;2023-02-28T16:31:21;0.40;56.60
40952;DHT22;26682;51.660;19.338;2023-02-28T16:34:05;0.40;52.50
40952;DHT22;26682;51.660;19.338;2023-02-28T16:36:48;0.40;52.10
40952;DHT22;26682;51.660;19.338;2023-02-28T16:39:31;0.30;55.50
40952;DHT22;26682;51.660;19.338;2023-02-28T16:42:23;0.20;53.70
40952;DHT22;26682;51.660;19.338;2023-02-28T16:45:15;0.20;64.30
40952;DHT22;26682;51.660;19.338;2023-02-28T16:47:58;0.10;46.30
40952;DHT22;26682;51.660;19.338;2023-02-28T16:50:42;0.00;35.20
40952;DHT22;26682;51.660;19.338;2023-02-28T16:53:26;0.00;19.00
40952;DHT22;26682;51.660;19.338;2023-02-28T16:56:18;-0.10;1.00
40952;DHT22;26682;51.660;19.338;2023-02-28T16:59:02;-0.20;1.00
40952;DHT22;26682;51.660;19.338;2023-02-28T17:01:44;-0.20;1.00
40952;DHT22;26682;51.660;19.338;2023-02-28T17:04:27;-0.30;1.00
40952;DHT22;26682;51.660;19.338;2023-02-28T17:07:12;-0.40;1.00
40952;DHT22;26682;51.660;19.338;2023-02-28T17:09:55;-0.50;1.00
40952;DHT22;26682;51.660;19.338;2023-02-28T17:12:38;-0.60;1.00
40952;DHT22;26682;51.660;19.338;2023-02-28T17:15:20;-0.60;1.00
40952;DHT22;26682;51.660;19.338;2023-02-28T17:18:03;-0.70;1.00
40952;DHT22;26682;51.660;19.338;2023-02-28T17:20:46;-0.70;99.90
40952;DHT22;26682;51.660;19.338;2023-02-28T17:23:29;-0.70;99.90
40952;DHT22;26682;51.660;19.338;2023-02-28T17:26:21;-0.80;99.90
40952;DHT22;26682;51.660;19.338;2023-02-28T17:29:16;-0.80;99.90
40952;DHT22;26682;51.660;19.338;2023-02-28T17:31:58;-0.90;99.90
40952;DHT22;26682;51.660;19.338;2023-02-28T17:34:50;-0.90;99.90
40952;DHT22;26682;51.660;19.338;2023-02-28T17:37:35;-1.00;99.90
40952;DHT22;26682;51.660;19.338;2023-02-28T17:40:21;-1.00;92.40
40952;DHT22;26682;51.660;19.338;2023-02-28T17:43:04;-1.00;99.90
40952;DHT22;26682;51.660;19.338;2023-02-28T17:45:47;-1.10;99.90
40952;DHT22;26682;51.660;19.338;2023-02-28T17:48:29;-1.20;91.30
40952;DHT22;26682;51.660;19.338;2023-02-28T17:51:14;-1.20;99.90
40952;DHT22;26682;51.660;19.338;2023-02-28T17:53:57;-1.20;99.90
40952;DHT22;26682;51.660;19.338;2023-02-28T17:56:40;-1.30;80.00
40952;DHT22;26682;51.660;19.338;2023-02-28T17:59:25;-1.40;1.00
40952;DHT22;26682;51.660;19.338;2023-02-28T18:02:09;-1.40;99.90
40952;DHT22;26682;51.660;19.338;2023-02-28T18:04:54;-1.50;99.90
40952;DHT22;26682;51.660;19.338;2023-02-28T18:07:37;-1.50;99.90
40952;DHT22;26682;51.660;19.338;2023-02-28T18:10:21;-1.60;99.90
40952;DHT22;26682;51.660;19.338;2023-02-28T18:13:04;-1.70;99.90
40952;DHT22;26682;51.660;19.338;2023-02-28T18:15:47;-1.70;99.90
40952;DHT22;26682;51.660;19.338;2023-02-28T18:18:30;-1.70;99.90
40952;DHT22;26682;51.660;19.338;2023-02-28T18:21:15;-1.70;99.90
40952;DHT22;26682;51.660;19.338;2023-02-28T18:23:58;-1.80;99.90
40952;DHT22;26682;51.660;19.338;2023-02-28T18:26:41;-1.80;99.90
40952;DHT22;26682;51.660;19.338;2023-02-28T18:29:26;-1.70;1.00
40952;DHT22;26682;51.660;19.338;2023-02-28T18:32:09;-1.80;99.90
40952;DHT22;26682;51.660;19.338;2023-02-28T18:34:53;-1.80;99.90
40952;DHT22;26682;51.660;19.338;2023-02-28T18:37:36;-1.80;99.90
40952;DHT22;26682;51.660;19.338;2023-02-28T18:40:19;-1.90;99.90
40952;DHT22;26682;51.660;19.338;2023-02-28T18:43:02;-1.90;99.90
40952;DHT22;26682;51.660;19.338;2023-02-28T18:45:45;-2.00;99.90
40952;DHT22;26682;51.660;19.338;2023-02-28T18:48:28;-2.00;99.90
40952;DHT22;26682;51.660;19.338;2023-02-28T18:51:19;-2.00;99.90
40952;DHT22;26682;51.660;19.338;2023-02-28T18:54:02;-2.00;99.90
40952;DHT22;26682;51.660;19.338;2023-02-28T18:56:45;-2.10;99.90
40952;DHT22;26682;51.660;19.338;2023-02-28T18:59:28;-2.10;99.90
40952;DHT22;26682;51.660;19.338;2023-02-28T19:02:11;-2.20;99.90
40952;DHT22;26682;51.660;19.338;2023-02-28T19:04:54;-2.20;1.00
40952;DHT22;26682;51.660;19.338;2023-02-28T19:07:37;-2.30;1.00
40952;DHT22;26682;51.660;19.338;2023-02-28T19:10:19;-2.30;1.00
40952;DHT22;26682;51.660;19.338;2023-02-28T19:13:02;-2.30;1.00
40952;DHT22;26682;51.660;19.338;2023-02-28T19:15:46;-2.40;99.90
40952;DHT22;26682;51.660;19.338;2023-02-28T19:18:30;-2.40;1.00
40952;DHT22;26682;51.660;19.338;2023-02-28T19:21:15;-2.40;86.30
40952;DHT22;26682;51.660;19.338;2023-02-28T19:23:58;-2.40;82.60
40952;DHT22;26682;51.660;19.338;2023-02-28T19:26:43;-2.40;99.90
40952;DHT22;26682;51.660;19.338;2023-02-28T19:29:26;-2.50;99.90
40952;DHT22;26682;51.660;19.338;2023-02-28T19:32:08;-2.40;99.90
40952;DHT22;26682;51.660;19.338;2023-02-28T19:34:51;-2.40;17.50
40952;DHT22;26682;51.660;19.338;2023-02-28T19:37:37;-2.40;85.30
40952;DHT22;26682;51.660;19.338;2023-02-28T19:40:20;-2.50;44.30
40952;DHT22;26682;51.660;19.338;2023-02-28T19:43:03;-2.50;86.50
40952;DHT22;26682;51.660;19.338;2023-02-28T19:45:47;-2.50;99.90
40952;DHT22;26682;51.660;19.338;2023-02-28T19:48:30;-2.60;99.90
40952;DHT22;26682;51.660;19.338;2023-02-28T19:51:13;-2.70;99.90
40952;DHT22;26682;51.660;19.338;2023-02-28T19:53:56;-2.80;99.90
40952;DHT22;26682;51.660;19.338;2023-02-28T19:56:38;-2.80;99.90
40952;DHT22;26682;51.660;19.338;2023-02-28T19:59:21;-2.90;99.90
40952;DHT22;26682;51.660;19.338;2023-02-28T20:02:20;-2.90;99.90
40952;DHT22;26682;51.660;19.338;2023-02-28T20:05:03;-3.00;99.90